Time;durP1;ratioP1;P1;durP2;ratioP2;P2;SDS_P1;SDS_P2;PMS_P1;PMS_P2;Temp;Humidity;BMP_temperature;BMP_pressure;BME280_temperature;BME280_humidity;BME280_pressure;Samples;Min_cycle;Max_cycle;Signal;HPM_P1;HPM_P2
2022/09/15 00:01:08;;;;;;;;;;;;;;;;;;5054375;28;19983;-54
2022/09/15 00:03:34;;;;;;;;;;;;;;;;;;5054314;28;19925;-53
2022/09/15 00:06:01;;;;;;;;;;;;;;;;;;5054322;28;20317;-54
2022/09/15 00:08:27;;;;;;;;;;;;;;;;;;5054199;28;19937;-53
2022/09/15 00:10:55;;;;;;;;;;;;;;;;;;5054143;28;20266;-53
2022/09/15 00:13:22;;;;;;;;;;;;;;;;;;5053901;28;19925;-51
2022/09/15 00:15:49;;;;;;;;;;;;;;;;;;5054100;28;19929;-54
2022/09/15 00:18:17;;;;;;;;;;;;;;;;;;5053919;28;19929;-55
2022/09/15 00:20:44;;;;;;;;;;;;;;;;;;5054040;28;20535;-56
2022/09/15 00:23:12;;;;;;;;;;;;;;;;;;5052680;28;20468;-55
2022/09/15 00:25:41;;;;;;;;;;;;;;;;;;5053722;28;19968;-53
2022/09/15 00:28:08;;;;;;;;;;;;;;;;;;5054050;28;20309;-49
2022/09/15 00:30:34;;;;;;;;;;;;;;;;;;5053661;28;19970;-52
2022/09/15 00:33:01;;;;;;;;;;;;;;;;;;5053686;28;19947;-54
2022/09/15 00:35:29;;;;;;;;;;;;;;;;;;5053726;28;19979;-54
2022/09/15 00:37:55;;;;;;;;;;;;;;;;;;5053393;28;19925;-53
2022/09/15 00:40:22;;;;;;;;;;;;;;;;;;5053776;28;19951;-55
2022/09/15 00:42:49;;;;;;;;;;;;;;;;;;5060873;28;19932;-55
2022/09/15 00:45:16;;;;;;;;;;;;;;;;;;5073625;28;20355;-54
2022/09/15 00:47:43;;;;;;;;;;;;;;;;;;5073529;28;19931;-54
2022/09/15 00:50:11;;;;;;;;;;;;;;;;;;5073583;28;19930;-56
2022/09/15 00:52:42;;;;;;;;;;;;;;;;;;5073277;28;19924;-52
2022/09/15 00:55:17;;;;;;;;;;;;;;;;;;5073406;28;19975;-51
2022/09/15 00:57:46;;;;;;;;;;;;;;;;;;5073228;28;19929;-54
2022/09/15 01:00:14;;;;;;;;;;;;;;;;;;5072972;28;19932;-54
2022/09/15 01:02:42;;;;;;;;;;;;;;;;;;5073005;28;19928;-56
2022/09/15 01:05:10;;;;;;;;;;;;;;;;;;5073179;28;19928;-54
2022/09/15 01:07:41;;;;;;;;;;;;;;;;;;5073093;28;19929;-55
2022/09/15 01:10:10;;;;;;;;;;;;;;;;;;5072787;28;20019;-52
2022/09/15 01:12:37;;;;;;;;;;;;;;;;;;5069466;28;19982;-53
2022/09/15 01:15:03;;;;;;;;;;;;;;;;;;5066577;23;20352;-74
2022/09/15 01:17:34;;;;;;;;;;;;;;;;;;5044805;28;19925;-76
2022/09/15 01:20:10;;;;;;;;;;;;;;;;;;5047650;28;19977;-74
2022/09/15 01:22:41;;;;;;;;;;;;;;;;;;5041460;28;20016;-76
2022/09/15 01:25:10;;;;;;;;;;;;;;;;;;5033975;28;19948;-77
2022/09/15 01:27:51;;;;;;;;;;;;;;;;;;5033449;28;19936;-78
2022/09/15 01:30:19;;;;;;;;;;;;;;;;;;5030358;28;19956;-77
2022/09/15 01:33:04;;;;;;;;;;;;;;;;;;5033392;28;19947;-76
2022/09/15 01:35:34;;;;;;;;;;;;;;;;;;5033763;28;19975;-76
2022/09/15 01:38:03;;;;;;;;;;;;;;;;;;5033381;28;19932;-77
2022/09/15 01:40:32;;;;;;;;;;;;;;;;;;5032947;28;20298;-75
2022/09/15 01:43:00;;;;;;;;;;;;;;;;;;5033080;28;20292;-75
2022/09/15 01:45:29;;;;;;;;;;;;;;;;;;5032801;28;19925;-75
2022/09/15 01:47:57;;;;;;;;;;;;;;;;;;5033238;28;19925;-74
2022/09/15 01:50:26;;;;;;;;;;;;;;;;;;5032712;28;19925;-75
2022/09/15 01:52:55;;;;;;;;;;;;;;;;;;5033208;28;19933;-75
2022/09/15 01:55:24;;;;;;;;;;;;;;;;;;5032949;28;19925;-77
2022/09/15 01:57:50;;;;;;;;;;;;;;;;;;5032947;28;20308;-77
2022/09/15 02:00:17;;;;;;;;;;;;;;;;;;5032609;28;19925;-77
2022/09/15 02:02:47;;;;;;;;;;;;;;;;;;5032863;28;19968;-77
2022/09/15 02:05:17;;;;;;;;;;;;;;;;;;5032800;28;20019;-77
2022/09/15 02:07:47;;;;;;;;;;;;;;;;;;5033735;28;19937;-77
2022/09/15 02:10:17;;;;;;;;;;;;;;;;;;5032379;28;20550;-77
2022/09/15 02:12:46;;;;;;;;;;;;;;;;;;5032984;28;19933;-76
2022/09/15 02:15:14;;;;;;;;;;;;;;;;;;5033280;28;19931;-76
2022/09/15 02:17:42;;;;;;;;;;;;;;;;;;5032686;28;19932;-76
2022/09/15 02:20:14;;;;;;;;;;;;;;;;;;5032385;28;19926;-77
2022/09/15 02:22:43;;;;;;;;;;;;;;;;;;5034529;28;20004;-76
2022/09/15 02:25:11;;;;;;;;;;;;;;;;;;5036844;28;19925;-77
2022/09/15 02:27:40;;;;;;;;;;;;;;;;;;5035796;28;19925;-75
2022/09/15 02:30:08;;;;;;;;;;;;;;;;;;5034498;28;19925;-76
2022/09/15 02:32:36;;;;;;;;;;;;;;;;;;5034470;28;19925;-77
2022/09/15 02:35:05;;;;;;;;;;;;;;;;;;5035558;28;19929;-75
2022/09/15 02:37:34;;;;;;;;;;;;;;;;;;5036197;28;19929;-76
2022/09/15 02:40:01;;;;;;;;;;;;;;;;;;5034633;28;19931;-76
2022/09/15 02:42:29;;;;;;;;;;;;;;;;;;5035839;28;20033;-76
2022/09/15 02:44:55;;;;;;;;;;;;;;;;;;5037130;28;20474;-76
2022/09/15 02:47:22;;;;;;;;;;;;;;;;;;5043222;28;19971;-75
2022/09/15 02:49:48;;;;;;;;;;;;;;;;;;5043620;28;19929;-75
2022/09/15 02:52:15;;;;;;;;;;;;;;;;;;5041810;28;19933;-75
2022/09/15 02:54:43;;;;;;;;;;;;;;;;;;5043448;28;19925;-75
2022/09/15 02:57:09;;;;;;;;;;;;;;;;;;5043975;28;20016;-75
2022/09/15 03:02:17;;;;;;;;;;;;;;;;;;5043166;28;19959;-75
2022/09/15 03:04:43;;;;;;;;;;;;;;;;;;5043447;28;19928;-76
2022/09/15 03:07:10;;;;;;;;;;;;;;;;;;5044523;28;19929;-75
2022/09/15 03:09:36;;;;;;;;;;;;;;;;;;5043728;28;20027;-76
2022/09/15 03:12:05;;;;;;;;;;;;;;;;;;5043425;28;20300;-76
2022/09/15 03:14:31;;;;;;;;;;;;;;;;;;5043887;28;20028;-76
2022/09/15 03:16:58;;;;;;;;;;;;;;;;;;5042962;28;19975;-75
2022/09/15 03:19:25;;;;;;;;;;;;;;;;;;5043690;28;19937;-76
2022/09/15 03:21:51;;;;;;;;;;;;;;;;;;5043215;28;19925;-75
2022/09/15 03:24:18;;;;;;;;;;;;;;;;;;5043633;28;19925;-76
2022/09/15 03:26:47;;;;;;;;;;;;;;;;;;5042665;28;19936;-77
2022/09/15 03:29:15;;;;;;;;;;;;;;;;;;5040680;28;19933;-77
2022/09/15 03:31:43;;;;;;;;;;;;;;;;;;5039531;28;19932;-77
2022/09/15 03:34:09;;;;;;;;;;;;;;;;;;5038728;28;19932;-76
2022/09/15 03:36:37;;;;;;;;;;;;;;;;;;5038101;28;19971;-77
2022/09/15 03:39:06;;;;;;;;;;;;;;;;;;5037764;28;19925;-76
2022/09/15 03:41:33;;;;;;;;;;;;;;;;;;5037854;28;19980;-76
2022/09/15 03:43:59;;;;;;;;;;;;;;;;;;5038120;28;20007;-76
2022/09/15 03:46:27;;;;;;;;;;;;;;;;;;5037108;28;19925;-76
2022/09/15 03:48:53;;;;;;;;;;;;;;;;;;5035664;28;19932;-76
2022/09/15 03:51:20;;;;;;;;;;;;;;;;;;5035659;28;19925;-77
2022/09/15 03:53:47;;;;;;;;;;;;;;;;;;5035768;28;19925;-76
2022/09/15 03:56:17;;;;;;;;;;;;;;;;;;5035281;28;19925;-76
2022/09/15 03:58:44;;;;;;;;;;;;;;;;;;5034985;28;19935;-76
2022/09/15 04:01:11;;;;;;;;;;;;;;;;;;5035914;28;19979;-77
2022/09/15 04:03:39;;;;;;;;;;;;;;;;;;5036419;28;19939;-75
2022/09/15 04:06:05;;;;;;;;;;;;;;;;;;5034801;28;19925;-76
2022/09/15 04:08:32;;;;;;;;;;;;;;;;;;5035349;28;19935;-76
2022/09/15 04:10:59;;;;;;;;;;;;;;;;;;5034870;28;20008;-77
2022/09/15 04:13:25;;;;;;;;;;;;;;;;;;5036982;28;19929;-76
2022/09/15 04:15:57;;;;;;;;;;;;;;;;;;5035905;28;20013;-76
2022/09/15 04:18:24;;;;;;;;;;;;;;;;;;5035626;28;19972;-76
2022/09/15 04:20:54;;;;;;;;;;;;;;;;;;5035728;28;19925;-76
2022/09/15 04:23:20;;;;;;;;;;;;;;;;;;5035022;28;19925;-75
2022/09/15 04:25:54;;;;;;;;;;;;;;;;;;5035403;28;19926;-76
2022/09/15 04:28:20;;;;;;;;;;;;;;;;;;5035509;28;19957;-76
2022/09/15 04:30:47;;;;;;;;;;;;;;;;;;5036593;28;19948;-76
2022/09/15 04:33:13;;;;;;;;;;;;;;;;;;5034962;28;20019;-77
2022/09/15 04:35:39;;;;;;;;;;;;;;;;;;5034471;28;20380;-76
2022/09/15 04:38:07;;;;;;;;;;;;;;;;;;5035356;28;19972;-76
2022/09/15 04:40:33;;;;;;;;;;;;;;;;;;5034219;28;19926;-76
2022/09/15 04:43:00;;;;;;;;;;;;;;;;;;5034571;28;19924;-76
2022/09/15 04:45:27;;;;;;;;;;;;;;;;;;5034169;28;20287;-76
2022/09/15 04:47:53;;;;;;;;;;;;;;;;;;5033802;28;19925;-76
2022/09/15 04:50:19;;;;;;;;;;;;;;;;;;5034458;28;19964;-76
2022/09/15 04:52:46;;;;;;;;;;;;;;;;;;5035769;28;20027;-76
2022/09/15 04:55:14;;;;;;;;;;;;;;;;;;5035759;28;20016;-75
2022/09/15 04:57:40;;;;;;;;;;;;;;;;;;5035821;28;19932;-75
2022/09/15 05:00:07;;;;;;;;;;;;;;;;;;5035832;28;19933;-75
2022/09/15 05:02:33;;;;;;;;;;;;;;;;;;5034761;28;20012;-75
2022/09/15 05:05:01;;;;;;;;;;;;;;;;;;5034433;28;20379;-75
2022/09/15 05:07:27;;;;;;;;;;;;;;;;;;5040723;28;19931;-75
2022/09/15 05:09:54;;;;;;;;;;;;;;;;;;5044774;28;19947;-75
2022/09/15 05:12:22;;;;;;;;;;;;;;;;;;5043132;28;19925;-76
2022/09/15 05:14:48;;;;;;;;;;;;;;;;;;5033986;28;20304;-76
2022/09/15 05:17:14;;;;;;;;;;;;;;;;;;5033955;28;19932;-77
2022/09/15 05:19:41;;;;;;;;;;;;;;;;;;5033331;28;19975;-77
2022/09/15 05:22:07;;;;;;;;;;;;;;;;;;5034343;28;20017;-76
2022/09/15 05:24:34;;;;;;;;;;;;;;;;;;5033325;28;19925;-76
2022/09/15 05:27:00;;;;;;;;;;;;;;;;;;5033523;28;19932;-76
2022/09/15 05:29:28;;;;;;;;;;;;;;;;;;5033139;28;19925;-76
2022/09/15 05:31:54;;;;;;;;;;;;;;;;;;5033802;28;19932;-76
2022/09/15 05:34:21;;;;;;;;;;;;;;;;;;5034155;28;20008;-75
2022/09/15 05:36:47;;;;;;;;;;;;;;;;;;5034516;28;19929;-74
2022/09/15 05:39:13;;;;;;;;;;;;;;;;;;5033737;28;19995;-75
2022/09/15 05:41:40;;;;;;;;;;;;;;;;;;5033774;28;19975;-75
2022/09/15 05:44:06;;;;;;;;;;;;;;;;;;5033710;28;19925;-76
2022/09/15 05:46:34;;;;;;;;;;;;;;;;;;5033356;28;19925;-75
2022/09/15 05:49:00;;;;;;;;;;;;;;;;;;5032864;28;19925;-75
2022/09/15 05:51:28;;;;;;;;;;;;;;;;;;5032964;28;19988;-75
2022/09/15 05:53:55;;;;;;;;;;;;;;;;;;5033699;28;19925;-73
2022/09/15 05:56:22;;;;;;;;;;;;;;;;;;5033461;28;20011;-76
2022/09/15 05:58:48;;;;;;;;;;;;;;;;;;5033227;28;19929;-76
2022/09/15 06:01:16;;;;;;;;;;;;;;;;;;5032780;28;20410;-76
2022/09/15 06:03:44;;;;;;;;;;;;;;;;;;5033194;28;20303;-76
2022/09/15 06:06:11;;;;;;;;;;;;;;;;;;5032871;28;19925;-75
2022/09/15 06:08:38;;;;;;;;;;;;;;;;;;5032493;28;19979;-76
2022/09/15 06:11:06;;;;;;;;;;;;;;;;;;5032641;28;19932;-75
2022/09/15 06:13:32;;;;;;;;;;;;;;;;;;5032735;28;19951;-75
2022/09/15 06:16:06;;;;;;;;;;;;;;;;;;5031834;28;19962;-76
2022/09/15 06:18:32;;;;;;;;;;;;;;;;;;5032258;28;19975;-76
2022/09/15 06:21:03;;;;;;;;;;;;;;;;;;5032358;28;20313;-76
2022/09/15 06:23:30;;;;;;;;;;;;;;;;;;5032568;28;19925;-76
2022/09/15 06:25:56;;;;;;;;;;;;;;;;;;5032554;28;19925;-76
2022/09/15 06:28:23;;;;;;;;;;;;;;;;;;5032026;28;19925;-75
2022/09/15 06:30:50;;;;;;;;;;;;;;;;;;5033361;28;19933;-76
2022/09/15 06:33:16;;;;;;;;;;;;;;;;;;5032018;28;20402;-77
2022/09/15 06:35:43;;;;;;;;;;;;;;;;;;5031923;28;19935;-76
2022/09/15 06:38:11;;;;;;;;;;;;;;;;;;5032158;28;19925;-75
2022/09/15 06:40:40;;;;;;;;;;;;;;;;;;5031452;28;19932;-76
2022/09/15 06:43:15;;;;;;;;;;;;;;;;;;5031960;28;19925;-76
2022/09/15 06:45:41;;;;;;;;;;;;;;;;;;5029276;28;19939;-76
2022/09/15 06:48:08;;;;;;;;;;;;;;;;;;5033621;28;19944;-77
2022/09/15 06:50:34;;;;;;;;;;;;;;;;;;5030792;28;19926;-76
2022/09/15 06:53:01;;;;;;;;;;;;;;;;;;5029771;28;19924;-75
2022/09/15 06:55:28;;;;;;;;;;;;;;;;;;5030562;28;19968;-75
2022/09/15 06:57:55;;;;;;;;;;;;;;;;;;5030796;28;19980;-76
2022/09/15 07:00:21;;;;;;;;;;;;;;;;;;5030647;28;19935;-77
2022/09/15 07:03:00;;;;;;;;;;;;;;;;;;5037978;28;19940;-75
2022/09/15 07:05:26;;;;;;;;;;;;;;;;;;5032231;28;20346;-76
2022/09/15 07:07:53;;;;;;;;;;;;;;;;;;5035276;28;19925;-75
2022/09/15 07:10:33;;;;;;;;;;;;;;;;;;5031369;28;19981;-76
2022/09/15 07:13:02;;;;;;;;;;;;;;;;;;5036071;28;20370;-76
2022/09/15 07:15:28;;;;;;;;;;;;;;;;;;5032431;28;19932;-76
2022/09/15 07:18:06;;;;;;;;;;;;;;;;;;5036507;28;19925;-76
2022/09/15 07:20:33;;;;;;;;;;;;;;;;;;5032248;28;20025;-75
2022/09/15 07:22:59;;;;;;;;;;;;;;;;;;5080792;23;20415;-57
2022/09/15 07:25:26;;;;;;;;;;;;;;;;;;5049573;28;19929;-59
2022/09/15 07:27:52;;;;;;;;;;;;;;;;;;5049579;28;20344;-58
2022/09/15 07:30:20;;;;;;;;;;;;;;;;;;5049019;28;20341;-59
2022/09/15 07:32:47;;;;;;;;;;;;;;;;;;5052362;28;20385;-59
2022/09/15 07:35:13;;;;;;;;;;;;;;;;;;5052858;28;19925;-58
2022/09/15 07:37:40;;;;;;;;;;;;;;;;;;5040526;28;19925;-61
2022/09/15 07:40:07;;;;;;;;;;;;;;;;;;5032933;28;19925;-57
2022/09/15 07:42:33;;;;;;;;;;;;;;;;;;5033254;28;19925;-57
2022/09/15 07:45:00;;;;;;;;;;;;;;;;;;5033281;28;20474;-56
2022/09/15 07:47:28;;;;;;;;;;;;;;;;;;5033482;28;19925;-60
2022/09/15 07:49:55;;;;;;;;;;;;;;;;;;5032326;28;19925;-59
2022/09/15 07:52:21;;;;;;;;;;;;;;;;;;5032847;28;19925;-57
2022/09/15 07:54:48;;;;;;;;;;;;;;;;;;5033133;28;20093;-60
2022/09/15 07:57:14;;;;;;;;;;;;;;;;;;5033217;28;19932;-59
2022/09/15 07:59:41;;;;;;;;;;;;;;;;;;5032939;28;20015;-60
2022/09/15 08:02:15;;;;;;;;;;;;;;;;;;5038479;28;19929;-59
2022/09/15 08:04:43;;;;;;;;;;;;;;;;;;5034314;28;20305;-60
2022/09/15 08:07:10;;;;;;;;;;;;;;;;;;5032890;28;20015;-59
2022/09/15 08:09:36;;;;;;;;;;;;;;;;;;5032521;28;20541;-59
2022/09/15 08:12:03;;;;;;;;;;;;;;;;;;5032501;28;20543;-60
2022/09/15 08:14:30;;;;;;;;;;;;;;;;;;5032514;28;20452;-60
2022/09/15 08:16:59;;;;;;;;;;;;;;;;;;5032500;28;19925;-58
2022/09/15 08:19:26;;;;;;;;;;;;;;;;;;5033028;28;20374;-60
2022/09/15 08:21:54;;;;;;;;;;;;;;;;;;5032457;28;19932;-60
2022/09/15 08:24:21;;;;;;;;;;;;;;;;;;5032821;28;20426;-60
2022/09/15 08:26:47;;;;;;;;;;;;;;;;;;5032366;28;19932;-60
2022/09/15 08:29:14;;;;;;;;;;;;;;;;;;5031969;28;19925;-58
2022/09/15 08:31:40;;;;;;;;;;;;;;;;;;5032107;28;20359;-60
2022/09/15 08:34:07;;;;;;;;;;;;;;;;;;5031675;28;20300;-58
2022/09/15 08:36:34;;;;;;;;;;;;;;;;;;5032203;28;19952;-59
2022/09/15 08:39:02;;;;;;;;;;;;;;;;;;5032524;28;20314;-60
2022/09/15 08:41:30;;;;;;;;;;;;;;;;;;5035379;28;19929;-57
2022/09/15 08:43:59;;;;;;;;;;;;;;;;;;5051054;28;19925;-61
2022/09/15 08:46:27;;;;;;;;;;;;;;;;;;5052112;28;20015;-63
2022/09/15 08:48:56;;;;;;;;;;;;;;;;;;5052217;28;20022;-58
2022/09/15 08:51:25;;;;;;;;;;;;;;;;;;5052377;28;19925;-61
2022/09/15 08:53:54;;;;;;;;;;;;;;;;;;5052513;28;19961;-67
2022/09/15 08:56:22;;;;;;;;;;;;;;;;;;5051647;28;19924;-71
2022/09/15 08:58:49;;;;;;;;;;;;;;;;;;5050722;28;19990;-58
2022/09/15 09:01:20;;;;;;;;;;;;;;;;;;5048842;28;20360;-57
2022/09/15 09:03:57;;;;;;;;;;;;;;;;;;5031182;28;19932;-57
2022/09/15 09:06:28;;;;;;;;;;;;;;;;;;5030981;28;19972;-58
2022/09/15 09:09:00;;;;;;;;;;;;;;;;;;5037382;28;20396;-56
2022/09/15 09:11:34;;;;;;;;;;;;;;;;;;5051106;28;19971;-55
2022/09/15 09:14:05;;;;;;;;;;;;;;;;;;5051469;28;19924;-54
2022/09/15 09:16:48;;;;;;;;;;;;;;;;;;5040817;28;20301;-58
2022/09/15 09:19:20;;;;;;;;;;;;;;;;;;5031576;28;19925;-57
2022/09/15 09:21:54;;;;;;;;;;;;;;;;;;5031499;28;20349;-58
2022/09/15 09:24:26;;;;;;;;;;;;;;;;;;5014517;28;19925;-60
2022/09/15 09:26:55;;;;;;;;;;;;;;;;;;5044232;28;20308;-58
2022/09/15 09:29:26;;;;;;;;;;;;;;;;;;5050820;28;20443;-57
2022/09/15 09:31:54;;;;;;;;;;;;;;;;;;5046975;28;19956;-58
2022/09/15 09:34:27;;;;;;;;;;;;;;;;;;5033450;28;19925;-59
2022/09/15 09:36:57;;;;;;;;;;;;;;;;;;5031236;28;19925;-59
2022/09/15 09:39:24;;;;;;;;;;;;;;;;;;5030676;28;20317;-58
2022/09/15 09:41:51;;;;;;;;;;;;;;;;;;5030615;28;19929;-57
2022/09/15 09:44:19;;;;;;;;;;;;;;;;;;5031753;28;19925;-56
2022/09/15 09:46:46;;;;;;;;;;;;;;;;;;5032992;28;19981;-55
2022/09/15 09:49:16;;;;;;;;;;;;;;;;;;5050763;28;20462;-58
2022/09/15 09:51:52;;;;;;;;;;;;;;;;;;5050672;28;20301;-58
2022/09/15 09:54:19;;;;;;;;;;;;;;;;;;5049757;28;19925;-58
2022/09/15 09:56:46;;;;;;;;;;;;;;;;;;5050222;28;20031;-57
2022/09/15 09:59:32;;;;;;;;;;;;;;;;;;5048079;28;20007;-59
2022/09/15 10:02:12;;;;;;;;;;;;;;;;;;5038717;28;20371;-59
2022/09/15 10:04:39;;;;;;;;;;;;;;;;;;5036828;28;19925;-59
2022/09/15 10:07:06;;;;;;;;;;;;;;;;;;5035317;28;19978;-59
2022/09/15 10:09:33;;;;;;;;;;;;;;;;;;5041534;28;20289;-58
2022/09/15 10:12:00;;;;;;;;;;;;;;;;;;5035281;28;20401;-57
2022/09/15 10:14:29;;;;;;;;;;;;;;;;;;5042795;28;19925;-60
2022/09/15 10:17:00;;;;;;;;;;;;;;;;;;5038724;28;19979;-57
2022/09/15 10:19:29;;;;;;;;;;;;;;;;;;5027839;28;19929;-59
2022/09/15 10:21:56;;;;;;;;;;;;;;;;;;5024904;28;19971;-60
2022/09/15 10:24:24;;;;;;;;;;;;;;;;;;5050097;28;19928;-55
2022/09/15 10:26:50;;;;;;;;;;;;;;;;;;5049886;28;19978;-58
2022/09/15 10:29:18;;;;;;;;;;;;;;;;;;5050073;28;20264;-57
2022/09/15 10:31:45;;;;;;;;;;;;;;;;;;5049881;28;19925;-58
2022/09/15 10:34:25;;;;;;;;;;;;;;;;;;5049888;28;19928;-58
2022/09/15 10:36:53;;;;;;;;;;;;;;;;;;5044857;28;19936;-60
2022/09/15 10:39:27;;;;;;;;;;;;;;;;;;5036237;28;19925;-58
2022/09/15 10:41:58;;;;;;;;;;;;;;;;;;5029265;28;20020;-57
2022/09/15 10:44:31;;;;;;;;;;;;;;;;;;5029186;28;20016;-57
2022/09/15 10:47:05;;;;;;;;;;;;;;;;;;5032884;28;19947;-57
2022/09/15 10:49:46;;;;;;;;;;;;;;;;;;5048365;28;19936;-57
2022/09/15 10:52:21;;;;;;;;;;;;;;;;;;5040626;28;20406;-58
2022/09/15 10:54:56;;;;;;;;;;;;;;;;;;5043835;28;20378;-59
2022/09/15 10:57:30;;;;;;;;;;;;;;;;;;5033810;28;19956;-58
2022/09/15 11:00:01;;;;;;;;;;;;;;;;;;5037252;28;19925;-56
2022/09/15 11:02:48;;;;;;;;;;;;;;;;;;5034509;28;19971;-58
2022/09/15 11:05:24;;;;;;;;;;;;;;;;;;5038534;28;19927;-58
2022/09/15 11:07:58;;;;;;;;;;;;;;;;;;5046852;28;19928;-58
2022/09/15 11:10:29;;;;;;;;;;;;;;;;;;5045288;28;19925;-58
2022/09/15 11:13:00;;;;;;;;;;;;;;;;;;5032209;28;19925;-58
2022/09/15 11:15:39;;;;;;;;;;;;;;;;;;5032757;28;19979;-56
2022/09/15 11:18:13;;;;;;;;;;;;;;;;;;5033185;28;19932;-58
2022/09/15 11:20:46;;;;;;;;;;;;;;;;;;5042688;28;20030;-56
2022/09/15 11:23:17;;;;;;;;;;;;;;;;;;5039113;28;19975;-59
2022/09/15 11:25:45;;;;;;;;;;;;;;;;;;5034503;28;20002;-59
2022/09/15 11:28:15;;;;;;;;;;;;;;;;;;5033026;28;19981;-60
2022/09/15 11:30:44;;;;;;;;;;;;;;;;;;5036301;28;19928;-59
2022/09/15 11:33:15;;;;;;;;;;;;;;;;;;5051548;28;19925;-56
2022/09/15 11:35:45;;;;;;;;;;;;;;;;;;5036911;28;19972;-52
2022/09/15 11:38:20;;;;;;;;;;;;;;;;;;5037623;28;19978;-56
2022/09/15 11:40:49;;;;;;;;;;;;;;;;;;5033562;28;19933;-57
2022/09/15 11:43:17;;;;;;;;;;;;;;;;;;5035734;28;19940;-59
2022/09/15 11:45:45;;;;;;;;;;;;;;;;;;5040877;28;20405;-58
2022/09/15 11:48:13;;;;;;;;;;;;;;;;;;5042520;28;19933;-58
2022/09/15 11:50:45;;;;;;;;;;;;;;;;;;5037680;28;19939;-60
2022/09/15 11:53:16;;;;;;;;;;;;;;;;;;5045361;28;19925;-63
2022/09/15 11:55:49;;;;;;;;;;;;;;;;;;5041862;28;20008;-58
2022/09/15 11:58:19;;;;;;;;;;;;;;;;;;5046333;28;19936;-58
2022/09/15 12:00:51;;;;;;;;;;;;;;;;;;5033645;28;19925;-59
2022/09/15 12:03:20;;;;;;;;;;;;;;;;;;5048126;28;20309;-59
2022/09/15 12:05:49;;;;;;;;;;;;;;;;;;5050152;28;19960;-68
2022/09/15 12:08:19;;;;;;;;;;;;;;;;;;5044593;28;19968;-69
2022/09/15 12:10:51;;;;;;;;;;;;;;;;;;5044104;28;19979;-53
2022/09/15 12:13:18;;;;;;;;;;;;;;;;;;5032343;28;20337;-58
2022/09/15 12:15:46;;;;;;;;;;;;;;;;;;5045117;28;19994;-58
2022/09/15 12:18:19;;;;;;;;;;;;;;;;;;5033003;28;19991;-58
2022/09/15 12:20:50;;;;;;;;;;;;;;;;;;5038698;28;20019;-58
2022/09/15 12:23:21;;;;;;;;;;;;;;;;;;5041112;28;19925;-57
2022/09/15 12:25:55;;;;;;;;;;;;;;;;;;5042660;28;20418;-59
2022/09/15 12:28:26;;;;;;;;;;;;;;;;;;5041707;28;20168;-58
2022/09/15 12:31:08;;;;;;;;;;;;;;;;;;5042160;28;19936;-60
2022/09/15 12:33:43;;;;;;;;;;;;;;;;;;5038340;28;19932;-57
2022/09/15 12:36:28;;;;;;;;;;;;;;;;;;5035875;28;20327;-58
2022/09/15 12:38:55;;;;;;;;;;;;;;;;;;5041949;28;20248;-58
2022/09/15 12:41:23;;;;;;;;;;;;;;;;;;5039198;28;19933;-59
2022/09/15 12:43:52;;;;;;;;;;;;;;;;;;5040877;28;19928;-59
2022/09/15 12:46:18;;;;;;;;;;;;;;;;;;5041423;28;19925;-58
2022/09/15 12:48:45;;;;;;;;;;;;;;;;;;5041375;28;19931;-59
2022/09/15 12:51:20;;;;;;;;;;;;;;;;;;5044372;28;19925;-58
2022/09/15 12:53:49;;;;;;;;;;;;;;;;;;5047332;28;20589;-59
2022/09/15 12:56:22;;;;;;;;;;;;;;;;;;5049366;28;20024;-58
2022/09/15 12:58:51;;;;;;;;;;;;;;;;;;5032495;28;19968;-57
2022/09/15 13:01:31;;;;;;;;;;;;;;;;;;5035270;28;20421;-55
2022/09/15 13:04:17;;;;;;;;;;;;;;;;;;5045830;28;19925;-57
2022/09/15 13:07:04;;;;;;;;;;;;;;;;;;5037873;28;20554;-59
2022/09/15 13:09:42;;;;;;;;;;;;;;;;;;5045821;28;19925;-57
2022/09/15 13:12:09;;;;;;;;;;;;;;;;;;5043507;28;19983;-57
2022/09/15 13:14:40;;;;;;;;;;;;;;;;;;5030948;28;19929;-57
2022/09/15 13:17:11;;;;;;;;;;;;;;;;;;5032556;28;20271;-57
2022/09/15 13:19:40;;;;;;;;;;;;;;;;;;5033348;28;19998;-58
2022/09/15 13:22:12;;;;;;;;;;;;;;;;;;5043723;28;19963;-56
2022/09/15 13:24:46;;;;;;;;;;;;;;;;;;5046733;28;19925;-57
2022/09/15 13:27:13;;;;;;;;;;;;;;;;;;5045488;28;20141;-58
2022/09/15 13:29:43;;;;;;;;;;;;;;;;;;5054988;28;19925;-57
2022/09/15 13:32:14;;;;;;;;;;;;;;;;;;5050657;28;20030;-58
2022/09/15 13:34:48;;;;;;;;;;;;;;;;;;5048870;28;19948;-58
2022/09/15 13:37:31;;;;;;;;;;;;;;;;;;5037702;28;19928;-58
2022/09/15 13:40:06;;;;;;;;;;;;;;;;;;5045810;28;20401;-58
2022/09/15 13:42:42;;;;;;;;;;;;;;;;;;5034312;28;19929;-58
2022/09/15 13:45:20;;;;;;;;;;;;;;;;;;5034872;28;20353;-59
2022/09/15 13:47:56;;;;;;;;;;;;;;;;;;5042378;28;20314;-56
2022/09/15 13:50:24;;;;;;;;;;;;;;;;;;5031551;28;19925;-59
2022/09/15 13:53:05;;;;;;;;;;;;;;;;;;5031995;28;19925;-58
2022/09/15 13:55:33;;;;;;;;;;;;;;;;;;5031745;28;19925;-57
2022/09/15 13:58:01;;;;;;;;;;;;;;;;;;5049018;28;20007;-59
2022/09/15 14:00:30;;;;;;;;;;;;;;;;;;5046299;28;20546;-55
2022/09/15 14:02:59;;;;;;;;;;;;;;;;;;5045104;28;19978;-58
2022/09/15 14:05:26;;;;;;;;;;;;;;;;;;5037257;28;19929;-58
2022/09/15 14:07:57;;;;;;;;;;;;;;;;;;5043106;28;20378;-59
2022/09/15 14:10:25;;;;;;;;;;;;;;;;;;5031396;28;20033;-59
2022/09/15 14:12:52;;;;;;;;;;;;;;;;;;5052352;28;19925;-59
2022/09/15 14:15:21;;;;;;;;;;;;;;;;;;5037236;28;19932;-58
2022/09/15 14:17:49;;;;;;;;;;;;;;;;;;5042053;28;19996;-58
2022/09/15 14:20:21;;;;;;;;;;;;;;;;;;5040095;28;19928;-58
2022/09/15 14:22:49;;;;;;;;;;;;;;;;;;5048504;28;20027;-59
2022/09/15 14:25:17;;;;;;;;;;;;;;;;;;5033203;28;19925;-59
2022/09/15 14:27:45;;;;;;;;;;;;;;;;;;5029525;28;19983;-60
2022/09/15 14:30:17;;;;;;;;;;;;;;;;;;5030842;28;20012;-63
2022/09/15 14:32:44;;;;;;;;;;;;;;;;;;5049974;28;19961;-57
2022/09/15 14:35:16;;;;;;;;;;;;;;;;;;5049502;28;19947;-57
2022/09/15 14:37:47;;;;;;;;;;;;;;;;;;5042410;28;19932;-57
2022/09/15 14:40:19;;;;;;;;;;;;;;;;;;5048175;28;19948;-58
2022/09/15 14:42:45;;;;;;;;;;;;;;;;;;5033679;28;19933;-59
2022/09/15 14:45:13;;;;;;;;;;;;;;;;;;5033904;28;19939;-56
2022/09/15 14:47:42;;;;;;;;;;;;;;;;;;5042030;28;19925;-58
2022/09/15 14:50:12;;;;;;;;;;;;;;;;;;5052543;28;19925;-59
2022/09/15 14:52:42;;;;;;;;;;;;;;;;;;5050029;23;19926;-53
2022/09/15 14:55:12;;;;;;;;;;;;;;;;;;4992992;28;19926;-52
2022/09/15 14:57:41;;;;;;;;;;;;;;;;;;4994887;28;19926;-55
2022/09/15 15:00:09;;;;;;;;;;;;;;;;;;4994265;28;19990;-51
2022/09/15 15:02:46;;;;;;;;;;;;;;;;;;4992987;28;19945;-51
2022/09/15 15:05:17;;;;;;;;;;;;;;;;;;4975061;28;19984;-51
2022/09/15 15:07:45;;;;;;;;;;;;;;;;;;4989127;28;19930;-51
2022/09/15 15:10:16;;;;;;;;;;;;;;;;;;4993675;28;19940;-55
2022/09/15 15:12:44;;;;;;;;;;;;;;;;;;4994290;28;19926;-53
2022/09/15 15:15:11;;;;;;;;;;;;;;;;;;4994294;28;20025;-54
2022/09/15 15:17:40;;;;;;;;;;;;;;;;;;4993751;28;19993;-55
2022/09/15 15:20:14;;;;;;;;;;;;;;;;;;4993219;28;20368;-52
2022/09/15 15:22:42;;;;;;;;;;;;;;;;;;4984858;28;19934;-53
2022/09/15 15:25:26;;;;;;;;;;;;;;;;;;4993423;28;20016;-54
2022/09/15 15:27:53;;;;;;;;;;;;;;;;;;4994139;28;19973;-51
2022/09/15 15:30:25;;;;;;;;;;;;;;;;;;4993637;28;19932;-53
2022/09/15 15:32:52;;;;;;;;;;;;;;;;;;4993420;28;19976;-51
2022/09/15 15:35:19;;;;;;;;;;;;;;;;;;4993775;28;19926;-50
2022/09/15 15:37:47;;;;;;;;;;;;;;;;;;4993532;28;19926;-54
2022/09/15 15:40:15;;;;;;;;;;;;;;;;;;4994074;28;20016;-54
2022/09/15 15:42:52;;;;;;;;;;;;;;;;;;4992403;28;19930;-53
2022/09/15 15:45:23;;;;;;;;;;;;;;;;;;4993542;28;19926;-53
2022/09/15 15:47:49;;;;;;;;;;;;;;;;;;4993547;28;19926;-53
2022/09/15 15:50:19;;;;;;;;;;;;;;;;;;4993284;28;19932;-50
2022/09/15 15:52:46;;;;;;;;;;;;;;;;;;4992802;28;19926;-55
2022/09/15 15:55:14;;;;;;;;;;;;;;;;;;4990507;28;19926;-51
2022/09/15 15:57:40;;;;;;;;;;;;;;;;;;4983634;28;19981;-56
2022/09/15 16:00:16;;;;;;;;;;;;;;;;;;4992818;28;19926;-54
2022/09/15 16:02:43;;;;;;;;;;;;;;;;;;4992446;28;19925;-53
2022/09/15 16:05:09;;;;;;;;;;;;;;;;;;4992814;28;20387;-55
2022/09/15 16:07:37;;;;;;;;;;;;;;;;;;4991964;28;19988;-52
2022/09/15 16:10:04;;;;;;;;;;;;;;;;;;4992766;28;20458;-54
2022/09/15 16:12:31;;;;;;;;;;;;;;;;;;4993225;28;19948;-52
2022/09/15 16:14:57;;;;;;;;;;;;;;;;;;4993512;28;20399;-55
2022/09/15 16:17:25;;;;;;;;;;;;;;;;;;4992839;28;20000;-51
2022/09/15 16:19:52;;;;;;;;;;;;;;;;;;4992631;28;20181;-54
2022/09/15 16:22:20;;;;;;;;;;;;;;;;;;4990391;28;19930;-53
2022/09/15 16:24:46;;;;;;;;;;;;;;;;;;4990408;28;20028;-53
2022/09/15 16:27:14;;;;;;;;;;;;;;;;;;4992682;28;19933;-50
2022/09/15 16:29:41;;;;;;;;;;;;;;;;;;4991485;28;19926;-53
2022/09/15 16:32:10;;;;;;;;;;;;;;;;;;4988351;28;19948;-52
2022/09/15 16:34:38;;;;;;;;;;;;;;;;;;4990516;28;20564;-53
2022/09/15 16:37:05;;;;;;;;;;;;;;;;;;4992611;28;19926;-53
2022/09/15 16:39:31;;;;;;;;;;;;;;;;;;4989680;28;20397;-51
2022/09/15 16:41:58;;;;;;;;;;;;;;;;;;4992951;28;19925;-54
2022/09/15 16:44:25;;;;;;;;;;;;;;;;;;4976434;28;19981;-51
2022/09/15 16:46:51;;;;;;;;;;;;;;;;;;4990081;28;19930;-52
2022/09/15 16:49:18;;;;;;;;;;;;;;;;;;4992283;28;20064;-51
2022/09/15 16:51:46;;;;;;;;;;;;;;;;;;4990153;28;19925;-54
2022/09/15 16:54:15;;;;;;;;;;;;;;;;;;4986557;28;19930;-50
2022/09/15 16:56:42;;;;;;;;;;;;;;;;;;4972909;28;19932;-55
2022/09/15 16:59:08;;;;;;;;;;;;;;;;;;4989856;28;20393;-50
2022/09/15 17:01:35;;;;;;;;;;;;;;;;;;4973040;28;20438;-54